sensor_id;sensor_type;location;lat;lon;timestamp;temperature;humidity
42187;DHT22;27858;51.414;0.018;2023-08-20T00:01:33;16.80;99.90
42187;DHT22;27858;51.414;0.018;2023-08-20T00:04:00;16.90;99.90
42187;DHT22;27858;51.414;0.018;2023-08-20T00:06:27;16.90;99.90
42187;DHT22;27858;51.414;0.018;2023-08-20T00:08:54;16.90;99.90
42187;DHT22;27858;51.414;0.018;2023-08-20T00:11:21;16.90;99.90
42187;DHT22;27858;51.414;0.018;2023-08-20T00:13:48;16.90;99.90
42187;DHT22;27858;51.414;0.018;2023-08-20T00:16:15;16.90;99.90
42187;DHT22;27858;51.414;0.018;2023-08-20T00:18:42;16.90;99.90
42187;DHT22;27858;51.414;0.018;2023-08-20T00:21:09;16.80;99.90
42187;DHT22;27858;51.414;0.018;2023-08-20T00:23:36;16.80;99.90
42187;DHT22;27858;51.414;0.018;2023-08-20T00:26:03;16.80;99.90
42187;DHT22;27858;51.414;0.018;2023-08-20T00:28:31;16.80;99.90
42187;DHT22;27858;51.414;0.018;2023-08-20T00:31:00;16.80;99.90
42187;DHT22;27858;51.414;0.018;2023-08-20T00:33:28;16.80;99.90
42187;DHT22;27858;51.414;0.018;2023-08-20T00:35:55;16.80;99.90
42187;DHT22;27858;51.414;0.018;2023-08-20T00:38:21;16.80;99.90
42187;DHT22;27858;51.414;0.018;2023-08-20T00:40:48;16.80;99.90
42187;DHT22;27858;51.414;0.018;2023-08-20T00:43:15;16.70;99.90
42187;DHT22;27858;51.414;0.018;2023-08-20T00:45:42;16.70;99.90
42187;DHT22;27858;51.414;0.018;2023-08-20T00:48:10;16.70;99.90
42187;DHT22;27858;51.414;0.018;2023-08-20T00:50:38;16.80;99.90
42187;DHT22;27858;51.414;0.018;2023-08-20T00:53:08;16.70;99.90
42187;DHT22;27858;51.414;0.018;2023-08-20T00:55:37;16.70;99.90
42187;DHT22;27858;51.414;0.018;2023-08-20T00:58:04;16.70;99.90
42187;DHT22;27858;51.414;0.018;2023-08-20T01:00:31;16.70;99.90
42187;DHT22;27858;51.414;0.018;2023-08-20T01:02:58;16.70;99.90
42187;DHT22;27858;51.414;0.018;2023-08-20T01:05:25;16.70;99.90
42187;DHT22;27858;51.414;0.018;2023-08-20T01:10:45;16.70;99.90
42187;DHT22;27858;51.414;0.018;2023-08-20T01:13:13;16.60;99.90
42187;DHT22;27858;51.414;0.018;2023-08-20T01:15:41;16.70;99.90
42187;DHT22;27858;51.414;0.018;2023-08-20T01:18:08;16.60;99.90
42187;DHT22;27858;51.414;0.018;2023-08-20T01:20:45;16.60;99.90
42187;DHT22;27858;51.414;0.018;2023-08-20T01:23:57;16.60;99.90
42187;DHT22;27858;51.414;0.018;2023-08-20T01:26:48;16.60;99.90
42187;DHT22;27858;51.414;0.018;2023-08-20T01:29:21;16.60;99.90
42187;DHT22;27858;51.414;0.018;2023-08-20T01:31:48;16.60;99.90
42187;DHT22;27858;51.414;0.018;2023-08-20T01:34:15;16.60;99.90
42187;DHT22;27858;51.414;0.018;2023-08-20T01:36:42;16.60;99.90
42187;DHT22;27858;51.414;0.018;2023-08-20T01:39:08;16.60;99.90
42187;DHT22;27858;51.414;0.018;2023-08-20T01:41:35;16.60;99.90
42187;DHT22;27858;51.414;0.018;2023-08-20T01:44:02;16.50;99.90
42187;DHT22;27858;51.414;0.018;2023-08-20T01:46:29;16.50;99.90
42187;DHT22;27858;51.414;0.018;2023-08-20T01:48:55;16.40;99.90
42187;DHT22;27858;51.414;0.018;2023-08-20T01:51:22;16.40;99.90
42187;DHT22;27858;51.414;0.018;2023-08-20T01:53:49;16.40;99.90
42187;DHT22;27858;51.414;0.018;2023-08-20T01:56:16;16.30;99.90
42187;DHT22;27858;51.414;0.018;2023-08-20T01:58:43;16.30;99.90
42187;DHT22;27858;51.414;0.018;2023-08-20T02:01:09;16.30;99.90
42187;DHT22;27858;51.414;0.018;2023-08-20T02:03:36;16.30;99.90
42187;DHT22;27858;51.414;0.018;2023-08-20T02:06:04;16.20;99.90
42187;DHT22;27858;51.414;0.018;2023-08-20T02:08:31;16.20;99.90
42187;DHT22;27858;51.414;0.018;2023-08-20T02:11:02;16.10;99.90
42187;DHT22;27858;51.414;0.018;2023-08-20T02:13:30;16.10;99.90
42187;DHT22;27858;51.414;0.018;2023-08-20T02:16:02;16.10;99.90
42187;DHT22;27858;51.414;0.018;2023-08-20T02:18:29;16.10;99.90
42187;DHT22;27858;51.414;0.018;2023-08-20T02:20:57;16.10;99.90
42187;DHT22;27858;51.414;0.018;2023-08-20T02:23:23;16.10;99.90
42187;DHT22;27858;51.414;0.018;2023-08-20T02:25:50;16.10;99.90
42187;DHT22;27858;51.414;0.018;2023-08-20T02:28:17;16.00;99.90
42187;DHT22;27858;51.414;0.018;2023-08-20T02:30:45;16.00;99.90
42187;DHT22;27858;51.414;0.018;2023-08-20T02:33:12;16.10;99.90
42187;DHT22;27858;51.414;0.018;2023-08-20T02:35:39;16.00;99.90
42187;DHT22;27858;51.414;0.018;2023-08-20T02:38:06;16.00;99.90
42187;DHT22;27858;51.414;0.018;2023-08-20T02:40:39;16.00;99.90
42187;DHT22;27858;51.414;0.018;2023-08-20T02:43:06;16.00;99.90
42187;DHT22;27858;51.414;0.018;2023-08-20T02:45:38;15.90;99.90
42187;DHT22;27858;51.414;0.018;2023-08-20T02:48:05;16.00;99.90
42187;DHT22;27858;51.414;0.018;2023-08-20T02:50:32;16.00;99.90
42187;DHT22;27858;51.414;0.018;2023-08-20T02:52:59;16.00;99.90
42187;DHT22;27858;51.414;0.018;2023-08-20T02:55:26;16.00;99.90
42187;DHT22;27858;51.414;0.018;2023-08-20T02:57:53;16.00;99.90
42187;DHT22;27858;51.414;0.018;2023-08-20T03:00:19;16.00;99.90
42187;DHT22;27858;51.414;0.018;2023-08-20T03:02:46;16.00;99.90
42187;DHT22;27858;51.414;0.018;2023-08-20T03:05:13;16.00;99.90
42187;DHT22;27858;51.414;0.018;2023-08-20T03:07:40;16.00;99.90
42187;DHT22;27858;51.414;0.018;2023-08-20T03:10:07;15.90;99.90
42187;DHT22;27858;51.414;0.018;2023-08-20T03:12:34;16.00;99.90
42187;DHT22;27858;51.414;0.018;2023-08-20T03:15:01;15.90;99.90
42187;DHT22;27858;51.414;0.018;2023-08-20T03:17:29;15.90;99.90
42187;DHT22;27858;51.414;0.018;2023-08-20T03:19:57;16.00;99.90
42187;DHT22;27858;51.414;0.018;2023-08-20T03:22:26;16.00;99.90
42187;DHT22;27858;51.414;0.018;2023-08-20T03:24:53;16.00;99.90
42187;DHT22;27858;51.414;0.018;2023-08-20T03:27:20;16.00;99.90
42187;DHT22;27858;51.414;0.018;2023-08-20T03:29:47;16.00;99.90
42187;DHT22;27858;51.414;0.018;2023-08-20T03:32:14;16.00;99.90
42187;DHT22;27858;51.414;0.018;2023-08-20T03:34:41;16.00;99.90
42187;DHT22;27858;51.414;0.018;2023-08-20T03:37:07;15.90;99.90
42187;DHT22;27858;51.414;0.018;2023-08-20T03:39:34;16.00;99.90
42187;DHT22;27858;51.414;0.018;2023-08-20T03:42:01;15.90;99.90
42187;DHT22;27858;51.414;0.018;2023-08-20T03:44:28;16.00;99.90
42187;DHT22;27858;51.414;0.018;2023-08-20T03:46:56;16.00;99.90
42187;DHT22;27858;51.414;0.018;2023-08-20T03:49:23;15.90;99.90
42187;DHT22;27858;51.414;0.018;2023-08-20T03:51:50;16.00;99.90
42187;DHT22;27858;51.414;0.018;2023-08-20T03:54:17;16.00;99.90
42187;DHT22;27858;51.414;0.018;2023-08-20T03:56:43;15.90;99.90
42187;DHT22;27858;51.414;0.018;2023-08-20T03:59:10;16.00;99.90
42187;DHT22;27858;51.414;0.018;2023-08-20T04:01:37;15.90;99.90
42187;DHT22;27858;51.414;0.018;2023-08-20T04:04:05;16.00;99.90
42187;DHT22;27858;51.414;0.018;2023-08-20T04:06:32;16.00;99.90
42187;DHT22;27858;51.414;0.018;2023-08-20T04:08:58;15.90;99.90
42187;DHT22;27858;51.414;0.018;2023-08-20T04:11:25;15.90;99.90
42187;DHT22;27858;51.414;0.018;2023-08-20T04:13:52;15.90;99.90
42187;DHT22;27858;51.414;0.018;2023-08-20T04:16:18;15.90;99.90
42187;DHT22;27858;51.414;0.018;2023-08-20T04:18:45;15.90;99.90
42187;DHT22;27858;51.414;0.018;2023-08-20T04:21:12;15.90;99.90
42187;DHT22;27858;51.414;0.018;2023-08-20T04:23:38;15.90;99.90
42187;DHT22;27858;51.414;0.018;2023-08-20T04:26:05;15.90;99.90
42187;DHT22;27858;51.414;0.018;2023-08-20T04:28:32;15.90;99.90
42187;DHT22;27858;51.414;0.018;2023-08-20T04:30:59;15.90;99.90
42187;DHT22;27858;51.414;0.018;2023-08-20T04:33:27;15.90;99.90
42187;DHT22;27858;51.414;0.018;2023-08-20T04:35:54;15.80;99.90
42187;DHT22;27858;51.414;0.018;2023-08-20T04:38:20;15.90;99.90
42187;DHT22;27858;51.414;0.018;2023-08-20T04:40:48;15.90;99.90
42187;DHT22;27858;51.414;0.018;2023-08-20T04:43:15;15.90;99.90
42187;DHT22;27858;51.414;0.018;2023-08-20T04:45:42;15.90;99.90
42187;DHT22;27858;51.414;0.018;2023-08-20T04:48:09;15.90;99.90
42187;DHT22;27858;51.414;0.018;2023-08-20T04:50:36;15.90;99.90
42187;DHT22;27858;51.414;0.018;2023-08-20T04:53:03;15.90;99.90
42187;DHT22;27858;51.414;0.018;2023-08-20T04:55:30;15.90;99.90
42187;DHT22;27858;51.414;0.018;2023-08-20T04:57:57;15.80;99.90
42187;DHT22;27858;51.414;0.018;2023-08-20T05:00:24;15.90;99.90
42187;DHT22;27858;51.414;0.018;2023-08-20T05:02:51;15.90;99.90
42187;DHT22;27858;51.414;0.018;2023-08-20T05:05:18;15.80;99.90
42187;DHT22;27858;51.414;0.018;2023-08-20T05:07:44;15.80;99.90
42187;DHT22;27858;51.414;0.018;2023-08-20T05:10:11;15.90;99.90
42187;DHT22;27858;51.414;0.018;2023-08-20T05:12:38;15.90;99.90
42187;DHT22;27858;51.414;0.018;2023-08-20T05:15:05;15.90;99.90
42187;DHT22;27858;51.414;0.018;2023-08-20T05:17:32;15.90;99.90
42187;DHT22;27858;51.414;0.018;2023-08-20T05:19:58;15.90;99.90
42187;DHT22;27858;51.414;0.018;2023-08-20T05:22:25;15.90;99.90
42187;DHT22;27858;51.414;0.018;2023-08-20T05:24:52;15.90;99.90
42187;DHT22;27858;51.414;0.018;2023-08-20T05:27:19;15.90;99.90
42187;DHT22;27858;51.414;0.018;2023-08-20T05:29:45;15.90;99.90
42187;DHT22;27858;51.414;0.018;2023-08-20T05:32:12;16.00;99.90
42187;DHT22;27858;51.414;0.018;2023-08-20T05:34:39;16.00;99.90
42187;DHT22;27858;51.414;0.018;2023-08-20T05:37:06;16.00;99.90
42187;DHT22;27858;51.414;0.018;2023-08-20T05:39:42;16.00;99.90
42187;DHT22;27858;51.414;0.018;2023-08-20T05:42:09;16.00;99.90
42187;DHT22;27858;51.414;0.018;2023-08-20T05:44:36;16.10;99.90
42187;DHT22;27858;51.414;0.018;2023-08-20T05:47:03;16.10;99.90
42187;DHT22;27858;51.414;0.018;2023-08-20T05:49:32;16.00;99.90
42187;DHT22;27858;51.414;0.018;2023-08-20T05:51:58;16.10;99.90
42187;DHT22;27858;51.414;0.018;2023-08-20T05:54:25;16.20;99.90
42187;DHT22;27858;51.414;0.018;2023-08-20T05:56:52;16.20;99.90
42187;DHT22;27858;51.414;0.018;2023-08-20T05:59:19;16.30;99.90
42187;DHT22;27858;51.414;0.018;2023-08-20T06:01:45;16.20;99.90
42187;DHT22;27858;51.414;0.018;2023-08-20T06:04:12;16.30;99.90
42187;DHT22;27858;51.414;0.018;2023-08-20T06:06:39;16.30;99.90
42187;DHT22;27858;51.414;0.018;2023-08-20T06:09:07;16.40;99.90
42187;DHT22;27858;51.414;0.018;2023-08-20T06:11:35;16.40;99.90
42187;DHT22;27858;51.414;0.018;2023-08-20T06:14:02;16.50;99.90
42187;DHT22;27858;51.414;0.018;2023-08-20T06:16:29;16.50;99.90
42187;DHT22;27858;51.414;0.018;2023-08-20T06:18:58;16.50;99.90
42187;DHT22;27858;51.414;0.018;2023-08-20T06:21:29;16.60;99.90
42187;DHT22;27858;51.414;0.018;2023-08-20T06:23:55;16.70;99.90
42187;DHT22;27858;51.414;0.018;2023-08-20T06:26:22;16.70;99.90
42187;DHT22;27858;51.414;0.018;2023-08-20T06:28:49;16.80;99.90
42187;DHT22;27858;51.414;0.018;2023-08-20T06:31:16;16.80;99.90
42187;DHT22;27858;51.414;0.018;2023-08-20T06:33:42;16.90;99.90
42187;DHT22;27858;51.414;0.018;2023-08-20T06:36:09;16.90;99.90
42187;DHT22;27858;51.414;0.018;2023-08-20T06:38:36;16.90;99.90
42187;DHT22;27858;51.414;0.018;2023-08-20T06:41:03;16.90;99.90
42187;DHT22;27858;51.414;0.018;2023-08-20T06:43:30;16.90;99.90
42187;DHT22;27858;51.414;0.018;2023-08-20T06:45:57;17.00;99.90
42187;DHT22;27858;51.414;0.018;2023-08-20T06:48:24;17.10;99.90
42187;DHT22;27858;51.414;0.018;2023-08-20T06:50:51;17.10;99.90
42187;DHT22;27858;51.414;0.018;2023-08-20T06:53:18;17.20;99.90
42187;DHT22;27858;51.414;0.018;2023-08-20T06:55:45;17.30;99.90
42187;DHT22;27858;51.414;0.018;2023-08-20T06:58:11;17.30;99.90
42187;DHT22;27858;51.414;0.018;2023-08-20T07:00:38;17.40;99.90
42187;DHT22;27858;51.414;0.018;2023-08-20T07:03:05;17.50;99.90
42187;DHT22;27858;51.414;0.018;2023-08-20T07:05:32;17.60;99.90
42187;DHT22;27858;51.414;0.018;2023-08-20T07:07:59;17.70;99.90
42187;DHT22;27858;51.414;0.018;2023-08-20T07:10:26;17.70;99.90
42187;DHT22;27858;51.414;0.018;2023-08-20T07:12:53;17.80;99.90
42187;DHT22;27858;51.414;0.018;2023-08-20T07:15:20;17.80;99.90
42187;DHT22;27858;51.414;0.018;2023-08-20T07:17:46;17.90;99.90
42187;DHT22;27858;51.414;0.018;2023-08-20T07:20:13;18.00;99.90
42187;DHT22;27858;51.414;0.018;2023-08-20T07:22:40;18.00;99.90
42187;DHT22;27858;51.414;0.018;2023-08-20T07:25:08;18.10;99.90
42187;DHT22;27858;51.414;0.018;2023-08-20T07:27:35;18.10;99.90
42187;DHT22;27858;51.414;0.018;2023-08-20T07:30:03;18.20;99.90
42187;DHT22;27858;51.414;0.018;2023-08-20T07:32:30;18.20;99.90
42187;DHT22;27858;51.414;0.018;2023-08-20T07:34:57;18.40;99.90
42187;DHT22;27858;51.414;0.018;2023-08-20T07:37:23;18.40;99.90
42187;DHT22;27858;51.414;0.018;2023-08-20T07:39:50;18.50;99.90
42187;DHT22;27858;51.414;0.018;2023-08-20T07:42:17;18.50;99.90
42187;DHT22;27858;51.414;0.018;2023-08-20T07:44:44;18.50;99.90
42187;DHT22;27858;51.414;0.018;2023-08-20T07:47:11;18.60;99.90
42187;DHT22;27858;51.414;0.018;2023-08-20T07:49:40;18.70;99.90
42187;DHT22;27858;51.414;0.018;2023-08-20T07:52:07;18.70;99.90
42187;DHT22;27858;51.414;0.018;2023-08-20T07:54:33;18.70;99.90
42187;DHT22;27858;51.414;0.018;2023-08-20T07:57:00;18.80;99.90
42187;DHT22;27858;51.414;0.018;2023-08-20T07:59:27;18.60;99.90
42187;DHT22;27858;51.414;0.018;2023-08-20T08:01:54;18.60;99.90
42187;DHT22;27858;51.414;0.018;2023-08-20T08:04:21;18.70;99.90
42187;DHT22;27858;51.414;0.018;2023-08-20T08:06:47;18.70;99.90
42187;DHT22;27858;51.414;0.018;2023-08-20T08:09:21;18.80;99.90
42187;DHT22;27858;51.414;0.018;2023-08-20T08:11:49;19.00;99.90
42187;DHT22;27858;51.414;0.018;2023-08-20T08:14:16;19.10;99.90
42187;DHT22;27858;51.414;0.018;2023-08-20T08:16:44;19.20;99.90
42187;DHT22;27858;51.414;0.018;2023-08-20T08:19:11;19.30;99.90
42187;DHT22;27858;51.414;0.018;2023-08-20T08:21:38;19.30;99.90
42187;DHT22;27858;51.414;0.018;2023-08-20T08:24:05;19.30;99.90
42187;DHT22;27858;51.414;0.018;2023-08-20T08:26:34;19.20;99.90
42187;DHT22;27858;51.414;0.018;2023-08-20T08:29:03;19.20;99.90
42187;DHT22;27858;51.414;0.018;2023-08-20T08:31:29;19.20;99.90
42187;DHT22;27858;51.414;0.018;2023-08-20T08:33:56;19.20;99.90
42187;DHT22;27858;51.414;0.018;2023-08-20T08:36:23;19.20;99.90
42187;DHT22;27858;51.414;0.018;2023-08-20T08:38:53;19.30;99.90
42187;DHT22;27858;51.414;0.018;2023-08-20T08:41:25;19.30;99.90
42187;DHT22;27858;51.414;0.018;2023-08-20T08:43:54;19.30;99.90
42187;DHT22;27858;51.414;0.018;2023-08-20T08:46:22;19.30;99.90
42187;DHT22;27858;51.414;0.018;2023-08-20T08:48:49;19.40;99.90
42187;DHT22;27858;51.414;0.018;2023-08-20T08:51:16;19.60;99.90
42187;DHT22;27858;51.414;0.018;2023-08-20T08:53:43;19.80;99.90
42187;DHT22;27858;51.414;0.018;2023-08-20T08:56:13;20.10;99.90
42187;DHT22;27858;51.414;0.018;2023-08-20T08:58:40;20.20;99.90
42187;DHT22;27858;51.414;0.018;2023-08-20T09:01:07;20.40;99.90
42187;DHT22;27858;51.414;0.018;2023-08-20T09:03:34;20.50;99.90
42187;DHT22;27858;51.414;0.018;2023-08-20T09:06:02;20.40;99.90
42187;DHT22;27858;51.414;0.018;2023-08-20T09:08:34;20.60;99.90
42187;DHT22;27858;51.414;0.018;2023-08-20T09:11:01;20.80;99.90
42187;DHT22;27858;51.414;0.018;2023-08-20T09:13:38;20.90;99.90
42187;DHT22;27858;51.414;0.018;2023-08-20T09:16:12;20.90;99.90
42187;DHT22;27858;51.414;0.018;2023-08-20T09:18:41;21.00;99.90
42187;DHT22;27858;51.414;0.018;2023-08-20T09:21:08;20.90;99.90
42187;DHT22;27858;51.414;0.018;2023-08-20T09:23:37;21.00;99.90
42187;DHT22;27858;51.414;0.018;2023-08-20T09:26:05;21.20;99.90
42187;DHT22;27858;51.414;0.018;2023-08-20T09:28:42;21.00;99.90
42187;DHT22;27858;51.414;0.018;2023-08-20T09:31:10;20.90;99.90
42187;DHT22;27858;51.414;0.018;2023-08-20T09:33:51;20.90;99.90
42187;DHT22;27858;51.414;0.018;2023-08-20T09:36:26;20.90;99.90
42187;DHT22;27858;51.414;0.018;2023-08-20T09:38:55;21.10;99.90
42187;DHT22;27858;51.414;0.018;2023-08-20T09:41:23;21.40;99.90
42187;DHT22;27858;51.414;0.018;2023-08-20T09:43:56;21.60;99.90
42187;DHT22;27858;51.414;0.018;2023-08-20T09:46:27;21.60;99.90
42187;DHT22;27858;51.414;0.018;2023-08-20T09:48:57;21.80;99.90
42187;DHT22;27858;51.414;0.018;2023-08-20T09:51:28;21.70;99.90
42187;DHT22;27858;51.414;0.018;2023-08-20T09:54:50;21.60;99.90
42187;DHT22;27858;51.414;0.018;2023-08-20T09:57:37;21.70;99.90
42187;DHT22;27858;51.414;0.018;2023-08-20T10:00:08;21.70;99.90
42187;DHT22;27858;51.414;0.018;2023-08-20T10:02:40;21.70;99.90
42187;DHT22;27858;51.414;0.018;2023-08-20T10:05:12;21.80;99.90
42187;DHT22;27858;51.414;0.018;2023-08-20T10:07:39;21.90;99.90
42187;DHT22;27858;51.414;0.018;2023-08-20T10:10:07;21.90;99.90
42187;DHT22;27858;51.414;0.018;2023-08-20T10:12:35;22.20;99.90
42187;DHT22;27858;51.414;0.018;2023-08-20T10:15:04;22.20;99.90
42187;DHT22;27858;51.414;0.018;2023-08-20T10:17:33;22.10;99.90
42187;DHT22;27858;51.414;0.018;2023-08-20T10:20:03;22.20;99.90
42187;DHT22;27858;51.414;0.018;2023-08-20T10:22:42;22.40;99.90
42187;DHT22;27858;51.414;0.018;2023-08-20T10:25:11;22.80;99.90
42187;DHT22;27858;51.414;0.018;2023-08-20T10:27:40;22.60;99.90
42187;DHT22;27858;51.414;0.018;2023-08-20T10:30:17;22.50;99.90
42187;DHT22;27858;51.414;0.018;2023-08-20T10:32:57;22.70;99.90
42187;DHT22;27858;51.414;0.018;2023-08-20T10:35:46;22.40;99.90
42187;DHT22;27858;51.414;0.018;2023-08-20T10:38:14;22.40;99.90
42187;DHT22;27858;51.414;0.018;2023-08-20T10:40:59;22.20;99.90
42187;DHT22;27858;51.414;0.018;2023-08-20T10:46:05;22.60;99.90
42187;DHT22;27858;51.414;0.018;2023-08-20T10:48:36;22.40;96.60
42187;DHT22;27858;51.414;0.018;2023-08-20T10:51:07;22.50;95.60
42187;DHT22;27858;51.414;0.018;2023-08-20T10:53:35;22.50;95.80
42187;DHT22;27858;51.414;0.018;2023-08-20T10:56:12;22.50;99.20
42187;DHT22;27858;51.414;0.018;2023-08-20T10:58:45;22.40;97.70
42187;DHT22;27858;51.414;0.018;2023-08-20T11:01:23;22.30;99.90
42187;DHT22;27858;51.414;0.018;2023-08-20T11:03:51;22.30;99.90
42187;DHT22;27858;51.414;0.018;2023-08-20T11:06:18;22.50;99.90
42187;DHT22;27858;51.414;0.018;2023-08-20T11:08:46;22.60;94.40
42187;DHT22;27858;51.414;0.018;2023-08-20T11:11:13;22.70;83.20
42187;DHT22;27858;51.414;0.018;2023-08-20T11:13:40;22.80;72.10
42187;DHT22;27858;51.414;0.018;2023-08-20T11:16:09;23.00;59.60
42187;DHT22;27858;51.414;0.018;2023-08-20T11:18:36;22.90;50.90
42187;DHT22;27858;51.414;0.018;2023-08-20T11:21:03;22.90;56.00
42187;DHT22;27858;51.414;0.018;2023-08-20T11:23:31;23.10;61.20
42187;DHT22;27858;51.414;0.018;2023-08-20T11:25:58;22.90;53.40
42187;DHT22;27858;51.414;0.018;2023-08-20T11:28:26;23.10;52.30
42187;DHT22;27858;51.414;0.018;2023-08-20T11:30:54;23.10;61.90
42187;DHT22;27858;51.414;0.018;2023-08-20T11:33:23;23.20;42.80
42187;DHT22;27858;51.414;0.018;2023-08-20T11:35:51;23.60;41.00
42187;DHT22;27858;51.414;0.018;2023-08-20T11:38:39;23.60;19.40
42187;DHT22;27858;51.414;0.018;2023-08-20T11:41:14;23.40;27.00
42187;DHT22;27858;51.414;0.018;2023-08-20T11:43:41;23.30;36.60
42187;DHT22;27858;51.414;0.018;2023-08-20T11:46:13;23.50;32.60
42187;DHT22;27858;51.414;0.018;2023-08-20T11:49:03;23.60;30.30
42187;DHT22;27858;51.414;0.018;2023-08-20T11:51:51;23.50;30.20
42187;DHT22;27858;51.414;0.018;2023-08-20T11:54:18;23.60;24.40
42187;DHT22;27858;51.414;0.018;2023-08-20T11:56:50;23.70;31.10
42187;DHT22;27858;51.414;0.018;2023-08-20T11:59:19;23.60;29.00
42187;DHT22;27858;51.414;0.018;2023-08-20T12:01:56;23.90;24.50
42187;DHT22;27858;51.414;0.018;2023-08-20T12:04:25;24.20;21.30
42187;DHT22;27858;51.414;0.018;2023-08-20T12:07:03;24.10;15.80
42187;DHT22;27858;51.414;0.018;2023-08-20T12:09:32;23.90;10.20
42187;DHT22;27858;51.414;0.018;2023-08-20T12:12:00;23.90;5.90
42187;DHT22;27858;51.414;0.018;2023-08-20T12:14:27;23.80;4.20
42187;DHT22;27858;51.414;0.018;2023-08-20T12:16:56;24.00;8.90
42187;DHT22;27858;51.414;0.018;2023-08-20T12:19:24;24.20;1.00
42187;DHT22;27858;51.414;0.018;2023-08-20T12:21:51;24.00;1.00
42187;DHT22;27858;51.414;0.018;2023-08-20T12:24:21;23.90;1.00
42187;DHT22;27858;51.414;0.018;2023-08-20T12:26:49;23.80;1.00
42187;DHT22;27858;51.414;0.018;2023-08-20T12:29:16;23.80;4.20
42187;DHT22;27858;51.414;0.018;2023-08-20T12:31:43;24.00;1.00
42187;DHT22;27858;51.414;0.018;2023-08-20T12:34:10;24.00;1.00
42187;DHT22;27858;51.414;0.018;2023-08-20T12:36:37;24.30;1.00
42187;DHT22;27858;51.414;0.018;2023-08-20T12:39:04;24.20;1.00
42187;DHT22;27858;51.414;0.018;2023-08-20T12:41:31;24.50;1.00
42187;DHT22;27858;51.414;0.018;2023-08-20T12:43:58;24.30;1.00
42187;DHT22;27858;51.414;0.018;2023-08-20T12:46:25;24.00;1.00
42187;DHT22;27858;51.414;0.018;2023-08-20T12:48:52;24.00;1.00
42187;DHT22;27858;51.414;0.018;2023-08-20T12:51:19;24.00;1.00
42187;DHT22;27858;51.414;0.018;2023-08-20T12:53:46;24.10;1.00
42187;DHT22;27858;51.414;0.018;2023-08-20T12:56:13;24.30;1.00
42187;DHT22;27858;51.414;0.018;2023-08-20T12:58:41;24.40;1.00
42187;DHT22;27858;51.414;0.018;2023-08-20T13:01:08;24.30;1.00
42187;DHT22;27858;51.414;0.018;2023-08-20T13:03:35;24.50;1.00
42187;DHT22;27858;51.414;0.018;2023-08-20T13:06:02;24.70;1.00
42187;DHT22;27858;51.414;0.018;2023-08-20T13:08:30;24.20;1.00
42187;DHT22;27858;51.414;0.018;2023-08-20T13:10:57;24.20;1.00
42187;DHT22;27858;51.414;0.018;2023-08-20T13:13:25;24.20;1.00
42187;DHT22;27858;51.414;0.018;2023-08-20T13:15:53;24.40;1.00
42187;DHT22;27858;51.414;0.018;2023-08-20T13:18:21;24.90;1.00
42187;DHT22;27858;51.414;0.018;2023-08-20T13:20:55;25.30;1.00
42187;DHT22;27858;51.414;0.018;2023-08-20T13:23:22;25.50;1.00
42187;DHT22;27858;51.414;0.018;2023-08-20T13:25:50;25.40;1.00
42187;DHT22;27858;51.414;0.018;2023-08-20T13:28:17;25.70;1.00
42187;DHT22;27858;51.414;0.018;2023-08-20T13:30:45;25.60;1.00
42187;DHT22;27858;51.414;0.018;2023-08-20T13:33:15;25.20;1.00
42187;DHT22;27858;51.414;0.018;2023-08-20T13:35:42;25.10;1.00
42187;DHT22;27858;51.414;0.018;2023-08-20T13:38:09;25.60;1.00
42187;DHT22;27858;51.414;0.018;2023-08-20T13:40:36;25.70;1.00
42187;DHT22;27858;51.414;0.018;2023-08-20T13:43:03;25.80;1.00
42187;DHT22;27858;51.414;0.018;2023-08-20T13:45:31;25.60;1.00
42187;DHT22;27858;51.414;0.018;2023-08-20T13:47:58;25.60;1.00
42187;DHT22;27858;51.414;0.018;2023-08-20T13:50:26;25.50;1.00
42187;DHT22;27858;51.414;0.018;2023-08-20T13:52:52;25.70;1.00
42187;DHT22;27858;51.414;0.018;2023-08-20T13:55:19;25.90;1.00
42187;DHT22;27858;51.414;0.018;2023-08-20T13:57:47;26.10;1.00
42187;DHT22;27858;51.414;0.018;2023-08-20T14:00:14;26.20;1.00
42187;DHT22;27858;51.414;0.018;2023-08-20T14:02:41;25.70;1.00
42187;DHT22;27858;51.414;0.018;2023-08-20T14:05:09;25.40;1.00
42187;DHT22;27858;51.414;0.018;2023-08-20T14:07:35;25.50;1.00
42187;DHT22;27858;51.414;0.018;2023-08-20T14:10:03;26.00;1.00
42187;DHT22;27858;51.414;0.018;2023-08-20T14:12:34;26.20;1.00
42187;DHT22;27858;51.414;0.018;2023-08-20T14:15:06;25.70;1.00
42187;DHT22;27858;51.414;0.018;2023-08-20T14:17:33;25.50;1.00
42187;DHT22;27858;51.414;0.018;2023-08-20T14:20:00;25.40;1.00
42187;DHT22;27858;51.414;0.018;2023-08-20T14:22:27;25.50;1.00
42187;DHT22;27858;51.414;0.018;2023-08-20T14:24:53;25.80;1.00
42187;DHT22;27858;51.414;0.018;2023-08-20T14:27:20;25.70;1.00
42187;DHT22;27858;51.414;0.018;2023-08-20T14:29:49;25.40;1.00
42187;DHT22;27858;51.414;0.018;2023-08-20T14:32:16;25.30;1.00
42187;DHT22;27858;51.414;0.018;2023-08-20T14:34:43;25.20;1.00
42187;DHT22;27858;51.414;0.018;2023-08-20T14:37:09;25.20;1.00
42187;DHT22;27858;51.414;0.018;2023-08-20T14:39:40;25.30;1.00
42187;DHT22;27858;51.414;0.018;2023-08-20T14:42:07;25.40;1.00
42187;DHT22;27858;51.414;0.018;2023-08-20T14:44:34;25.90;1.00
42187;DHT22;27858;51.414;0.018;2023-08-20T14:47:01;26.10;1.00
42187;DHT22;27858;51.414;0.018;2023-08-20T14:49:27;25.80;1.00
42187;DHT22;27858;51.414;0.018;2023-08-20T14:51:55;26.20;99.90
42187;DHT22;27858;51.414;0.018;2023-08-20T14:54:42;26.20;99.90
42187;DHT22;27858;51.414;0.018;2023-08-20T14:57:09;26.30;99.90
42187;DHT22;27858;51.414;0.018;2023-08-20T14:59:36;26.80;99.90
42187;DHT22;27858;51.414;0.018;2023-08-20T15:02:03;27.10;99.90
42187;DHT22;27858;51.414;0.018;2023-08-20T15:04:30;27.60;99.90
42187;DHT22;27858;51.414;0.018;2023-08-20T15:06:57;26.90;99.90
42187;DHT22;27858;51.414;0.018;2023-08-20T15:09:24;26.30;99.90
42187;DHT22;27858;51.414;0.018;2023-08-20T15:11:51;26.20;1.00
42187;DHT22;27858;51.414;0.018;2023-08-20T15:14:18;26.00;1.00
42187;DHT22;27858;51.414;0.018;2023-08-20T15:16:45;25.70;1.00
42187;DHT22;27858;51.414;0.018;2023-08-20T15:19:12;25.60;1.00
42187;DHT22;27858;51.414;0.018;2023-08-20T15:21:39;26.10;1.00
42187;DHT22;27858;51.414;0.018;2023-08-20T15:24:06;26.70;1.00
42187;DHT22;27858;51.414;0.018;2023-08-20T15:26:33;27.30;99.90
42187;DHT22;27858;51.414;0.018;2023-08-20T15:29:00;27.20;99.90
42187;DHT22;27858;51.414;0.018;2023-08-20T15:31:27;26.70;99.90
42187;DHT22;27858;51.414;0.018;2023-08-20T15:33:56;27.30;99.90
42187;DHT22;27858;51.414;0.018;2023-08-20T15:36:23;27.40;99.90
42187;DHT22;27858;51.414;0.018;2023-08-20T15:38:50;28.20;99.90
42187;DHT22;27858;51.414;0.018;2023-08-20T15:41:17;28.20;99.90
42187;DHT22;27858;51.414;0.018;2023-08-20T15:43:44;28.30;99.90
42187;DHT22;27858;51.414;0.018;2023-08-20T15:46:11;28.60;99.90